Snow/Ice From: 17-12-2018 09:00 Until: 17:00 warning for: Snow/Ice Level: Yellow info button
suomi:
Liikennesää: Ajokeli muuttuu huonoksi päivällä lumisateen vuoksi.

svenska:
Trafikvädret: Väglaget blir dåligt på dagen p.g.a. snöfall.

english:
Traffic weather warning: Bad road conditions are expected at noon and in the afternoon because of snow. 


Thunder radar more information blitzortung!


Löydät sääaseman tiedot myös:

European Weather Network

Finland Weather Exchange

Weather Underground

AWEKAS



Weather Underground säähistoriasivu

Päivittäin yhteenveto Joulukuu 1, 2017 Yksiköt:  Englantilaiset    Metriset   Molemmat
« Edellinen Päivä
Seuraava Päivä »
Päivittäin Viikoittain Kuukausittain Vuosittain Mukautettu
  Korkea: Matala: Keskiarvo:
Lämpötila: TemperatureC °F -1.6 °F -0.3 °F
Kastepiste: DewpointC °F -2.5 °F -0.8 °F
Kosteus: Humidity % 93 % 95 %
Tuulen nopeus: WindSpeedKMH mph 0.0 mph 0.2 mph
Tuulenpuuska: WindSpeedGustKMH mph - -
Tuuli:- - West
Ilmanpaine: PressurehPa in 1007.0 in -
Sade: 0.0 in    
Historical Graphs
 
 
Taulukkotiedot Joulukuu 1, 2017
Aika Lämpötila Kastepiste Ilmanpaine Tuuli Tuulen nopeus Tuulenpuuska Kosteus Sademäärä (tunneittain)
TemperatureC °F DewpointC °F PressurehPa in Calm     Humidity % HourlyPrecipMM in
00:00 1.0 °F 0.7 °F 1014.8 in Calm     98 % 0.0 in
00:15 0.9 °F 0.7 °F 1014.8 in Calm     98 % 0.0 in
00:30 0.9 °F 0.7 °F 1014.8 in Calm     98 % 0.0 in
01:15 0.8 °F 0.6 °F 1014.8 in Calm     98 % 0.0 in
01:30 0.8 °F 0.6 °F 1014.8 in Calm     98 % 0.0 in
01:45 0.8 °F 0.6 °F 1014.8 in Calm     98 % 0.0 in
02:00 0.8 °F 0.6 °F 1014.8 in Calm     98 % 0.0 in
02:15 0.8 °F 0.6 °F 1014.8 in Calm     98 % 0.0 in
02:30 0.8 °F 0.5 °F 1014.8 in Calm     98 % 0.0 in
02:45 0.8 °F 0.5 °F 1014.8 in Calm     98 % 0.0 in
03:00 0.6 °F 0.3 °F 1015.1 in Calm   4.8 mph 98 % 0.0 in
03:30 0.5 °F 0.2 °F 1015.1 in Calm     98 % 0.0 in
04:15 0.3 °F 0.1 °F 1015.1 in Calm     98 % 0.0 in
05:00 0.2 °F -0.1 °F 1015.1 in Calm   4.8 mph 98 % 0.0 in
05:15 0.1 °F -0.2 °F 1015.1 in Calm     98 % 0.0 in
05:30 0.1 °F -0.2 °F 1015.1 in Calm     98 % 0.0 in
05:45 0.1 °F -0.2 °F 1014.8 in Calm     98 % 0.0 in
06:00 0.1 °F -0.2 °F 1014.8 in Calm     98 % 0.0 in
06:30 0.1 °F -0.2 °F 1014.4 in Calm     98 % 0.0 in
06:45 0.1 °F -0.2 °F 1014.4 in Calm     98 % 0.0 in
07:00 0.1 °F -0.2 °F 1014.4 in Calm   3.2 mph 98 % 0.0 in
07:15 0.1 °F -0.2 °F 1014.1 in Calm     98 % 0.0 in
07:30 0.1 °F -0.2 °F 1014.4 in Calm     98 % 0.0 in
07:45 0.0 °F -0.3 °F 1014.4 in Calm     98 % 0.0 in
08:00 0.0 °F -0.3 °F 1014.4 in Calm     98 % 0.0 in
08:15 -0.1 °F -0.3 °F 1014.4 in Calm     98 % 0.0 in
08:30 -0.1 °F -0.3 °F 1014.4 in Calm     98 % 0.0 in
08:45 -0.1 °F -0.4 °F 1014.1 in Calm   1.6 mph 98 % 0.0 in
09:00 -0.2 °F -0.4 °F 1014.1 in Calm     98 % 0.0 in
09:15 -0.2 °F -0.4 °F 1014.1 in Calm     98 % 0.0 in
09:30 -0.2 °F -0.4 °F 1014.1 in Calm     98 % 0.0 in
10:00 -0.1 °F -0.3 °F 1013.8 in Calm     98 % 0.0 in
10:30 0.0 °F -0.3 °F 1013.8 in Calm     98 % 0.0 in
10:45 0.0 °F -0.3 °F 1013.4 in Calm     98 % 0.0 in
11:00 0.0 °F -0.3 °F 1013.4 in Calm     98 % 0.0 in
11:15 0.0 °F -0.3 °F 1013.1 in Calm   1.6 mph 98 % 0.0 in
11:30 0.1 °F -0.2 °F 1013.1 in Calm   3.2 mph 98 % 0.0 in
12:00 0.1 °F -0.2 °F 1012.4 in Calm   3.2 mph 98 % 0.0 in
12:15 0.1 °F -0.2 °F 1012.4 in Calm     98 % 0.0 in
12:30 0.1 °F -0.3 °F 1012.1 in Calm   3.2 mph 97 % 0.0 in
12:45 0.1 °F -0.3 °F 1012.1 in Calm   1.6 mph 97 % 0.0 in
13:00 0.1 °F -0.3 °F 1012.1 in Calm   4.8 mph 97 % 0.0 in
13:15 0.1 °F -0.3 °F 1011.7 in Calm   1.6 mph 97 % 0.0 in
13:30 0.1 °F -0.4 °F 1011.4 in Calm   1.6 mph 97 % 0.0 in
13:45 0.1 °F -0.4 °F 1011.4 in Calm   4.8 mph 97 % 0.0 in
14:00 0.0 °F -0.4 °F 1011.1 in Calm   4.8 mph 97 % 0.0 in
14:30 -0.2 °F -0.6 °F 1010.7 in ENE 1.6 mph 4.8 mph 97 % 0.0 in
14:45 -0.3 °F -0.8 °F 1010.7 in Calm   4.8 mph 96 % 0.0 in
15:00 -0.3 °F -0.8 °F 1010.7 in WNW 1.6 mph 4.8 mph 96 % 0.0 in
15:15 -0.3 °F -0.9 °F 1010.7 in Calm   3.2 mph 96 % 0.0 in
15:30 -0.4 °F -1.1 °F 1010.4 in Calm   4.8 mph 95 % 0.0 in
15:45 -0.4 °F -1.1 °F 1010.4 in Calm   3.2 mph 95 % 0.0 in
16:00 -0.5 °F -1.2 °F 1010.0 in Calm   4.8 mph 95 % 0.0 in
16:15 -0.5 °F -1.2 °F 1010.0 in Calm   4.8 mph 95 % 0.0 in
16:30 -0.6 °F -1.3 °F 1010.0 in Calm   4.8 mph 95 % 0.0 in
16:45 -0.7 °F -1.4 °F 1009.7 in Calm   3.2 mph 95 % 0.0 in
17:00 -0.8 °F -1.5 °F 1009.7 in Calm   4.8 mph 95 % 0.0 in
17:30 -0.9 °F -1.6 °F 1009.4 in Calm   1.6 mph 95 % 0.0 in
17:45 -0.9 °F -1.6 °F 1009.7 in Calm   1.6 mph 95 % 0.0 in
18:15 -1.1 °F -1.8 °F 1009.0 in Calm   3.2 mph 95 % 0.0 in
18:30 -1.1 °F -1.8 °F 1009.0 in Calm   4.8 mph 95 % 0.0 in
18:45 -1.2 °F -1.9 °F 1009.0 in Calm   4.8 mph 95 % 0.0 in
19:00 -1.2 °F -1.9 °F 1009.0 in Calm   1.6 mph 95 % 0.0 in
19:15 -1.3 °F -2.0 °F 1008.7 in NW 1.6 mph 6.4 mph 95 % 0.0 in
19:30 -1.3 °F -2.0 °F 1008.7 in NW 1.6 mph 4.8 mph 95 % 0.0 in
19:45 -1.4 °F -2.1 °F 1008.7 in NW 1.6 mph 8.0 mph 95 % 0.0 in
20:00 -1.4 °F -2.1 °F 1008.4 in North 1.6 mph 9.7 mph 95 % 0.0 in
20:15 -1.4 °F -2.2 °F 1008.7 in North 1.6 mph 4.8 mph 94 % 0.0 in
20:30 -1.4 °F -2.2 °F 1008.4 in Calm   4.8 mph 94 % 0.0 in
20:45 -1.4 °F -2.2 °F 1008.4 in NNW 1.6 mph 6.4 mph 94 % 0.0 in
21:00 -1.3 °F -2.3 °F 1008.4 in Calm   6.4 mph 93 % 0.0 in
21:30 -1.4 °F -2.4 °F 1008.0 in Calm     93 % 0.0 in
22:00 -1.4 °F -2.4 °F 1007.7 in Calm   4.8 mph 93 % 0.0 in
22:15 -1.5 °F -2.5 °F 1007.3 in Calm   4.8 mph 93 % 0.0 in
22:30 -1.5 °F -2.5 °F 1007.3 in Calm   1.6 mph 93 % 0.0 in
23:00 -1.6 °F -2.5 °F 1007.3 in Calm   4.8 mph 93 % 0.0 in
23:15 -1.6 °F -2.5 °F 1007.0 in Calm   3.2 mph 93 % 0.0 in
23:30 -1.6 °F -2.5 °F 1007.0 in Calm   4.8 mph 93 % 0.0 in
23:45 -1.6 °F -2.5 °F 1007.0 in NW 1.6 mph 8.0 mph 93 % 0.0 in
Esan sääasema
Terveisin Weather Underground - 2.75 mb

Alkuperäinen skripti  Jim McMurry - jmcmurry@mwt.net Sovitettu myös templatelle  Wim van der Kuil - Leuven-Template.eu

Laitteet joita käytämme:

Sääasema
Davis VP2

Sääasemaohjelma
Cumulus

Sääaseman tietokone
Asus EeePC

Palveluntarjoaja
Suncomet

Davis VP2

Cumulus

Asus EeePC

Suncomet